Terminal Aerodrome Forecast
Issued by NWS

Home | Current Version | Previous Version | Text Only | Print | Product List | Glossary On
Versions: 1 2 3 4 5 6 7 8 9 10 11 12 13
000
FTUS42 KMLB 040533
TAFFPR
TAF
KFPR 040533Z 0406/0506 22004KT P6SM FEW035 SCT250
     FM041300 30004KT P6SM SCT035 SCT250
     FM041700 08009KT P6SM VCTS SCT035CB BKN250
      TEMPO 0418/0421 TS BKN035CB BKN080
     FM050000 05004KT P6SM VCSH SCT035 BKN100=

USA.gov is the U.S. government's official web portal to all federal, state and local government web resources and services.